createdAt,value
2019-02-24T00:00:33.654Z,101466.77
2019-02-24T00:03:02.132Z,101456.50
2019-02-24T00:05:30.529Z,101460.78
2019-02-24T00:07:58.915Z,101464.25
2019-02-24T00:10:27.339Z,101460.89
2019-02-24T00:12:55.738Z,101455.72
2019-02-24T00:15:24.181Z,101466.58
2019-02-24T00:17:52.577Z,101458.86
2019-02-24T00:20:20.973Z,101454.47
2019-02-24T00:22:49.416Z,101451.95
2019-02-24T00:25:17.820Z,101450.45
2019-02-24T00:27:46.206Z,101454.47
2019-02-24T00:30:14.609Z,101456.61
2019-02-24T00:32:43.003Z,101458.56
2019-02-24T00:35:11.440Z,101463.60
2019-02-24T00:37:39.833Z,101456.72
2019-02-24T00:40:08.570Z,101459.17
2019-02-24T00:42:37.008Z,101461.31
2019-02-24T00:45:06.956Z,101467.77
2019-02-24T00:47:35.384Z,101464.95
2019-02-24T00:50:04.262Z,101466.09
2019-02-24T00:52:32.971Z,101472.88
2019-02-24T00:55:01.375Z,101466.81
2019-02-24T00:57:29.779Z,101474.20
2019-02-24T00:59:58.216Z,101469.30
2019-02-24T01:02:26.621Z,101461.45
2019-02-24T01:04:55.020Z,101464.07
2019-02-24T01:07:23.435Z,101466.81
2019-02-24T01:09:51.830Z,101465.08
2019-02-24T01:12:20.602Z,101463.81
2019-02-24T01:14:49.017Z,101463.14
2019-02-24T01:17:17.420Z,101456.24
2019-02-24T01:19:45.829Z,101459.66
2019-02-24T01:22:14.233Z,101452.97
2019-02-24T01:24:42.684Z,101458.18
2019-02-24T01:27:11.084Z,101459.53
2019-02-24T01:29:39.489Z,101457.88
2019-02-24T01:32:07.901Z,101457.81
2019-02-24T01:34:36.297Z,101469.36
2019-02-24T01:37:06.259Z,101464.66
2019-02-24T01:39:34.656Z,101462.12
2019-02-24T01:42:03.075Z,101451.67
2019-02-24T01:44:31.488Z,101455.50
2019-02-24T01:47:00.237Z,101454.91
2019-02-24T01:49:28.964Z,101459.30
2019-02-24T01:51:57.383Z,101458.75
2019-02-24T01:54:25.806Z,101453.25
2019-02-24T01:56:54.229Z,101461.87
2019-02-24T01:59:22.642Z,101463.11
2019-02-24T02:01:51.065Z,101460.45
2019-02-24T02:04:19.479Z,101456.02
2019-02-24T02:06:47.879Z,101459.84
2019-02-24T02:09:16.353Z,101457.44
2019-02-24T02:11:44.749Z,101449.66
2019-02-24T02:14:13.191Z,101449.47
2019-02-24T02:16:42.491Z,101454.52
2019-02-24T02:19:10.910Z,101449.48
2019-02-24T02:21:39.326Z,101453.80
2019-02-24T02:24:07.765Z,101444.53
2019-02-24T02:26:36.221Z,101443.89
2019-02-24T02:29:04.630Z,101443.35
2019-02-24T02:31:33.040Z,101442.91
2019-02-24T02:34:01.456Z,101446.64
2019-02-24T02:36:29.869Z,101443.67
2019-02-24T02:38:58.302Z,101447.91
2019-02-24T02:41:26.710Z,101439.41
2019-02-24T02:43:55.123Z,101438.05
2019-02-24T02:46:23.548Z,101431.69
2019-02-24T02:48:51.958Z,101431.20
2019-02-24T02:51:20.394Z,101431.70
2019-02-24T02:53:48.798Z,101422.67
2019-02-24T02:56:17.213Z,101422.23
2019-02-24T02:58:53.921Z,101421.88
2019-02-24T03:01:15.742Z,101412.61
2019-02-24T03:03:44.257Z,101421.98
2019-02-24T03:06:16.737Z,101415.58
2019-02-24T03:08:46.609Z,101422.22
2019-02-24T03:11:16.055Z,101413.03
2019-02-24T03:13:44.738Z,101412.91
2019-02-24T03:16:13.604Z,101409.14
2019-02-24T03:18:42.015Z,101398.11
2019-02-24T03:21:10.423Z,101405.38
2019-02-24T03:23:39.169Z,101399.83
2019-02-24T03:26:07.569Z,101398.29
2019-02-24T03:28:36.002Z,101391.06
2019-02-24T03:31:04.738Z,101399.89
2019-02-24T03:33:33.133Z,101396.67
2019-02-24T03:36:01.553Z,101394.50
2019-02-24T03:38:30.255Z,101399.14
2019-02-24T03:40:59.018Z,101395.00
2019-02-24T03:43:27.501Z,101395.39
2019-02-24T03:45:55.914Z,101388.53
2019-02-24T03:48:24.326Z,101396.73
2019-02-24T03:50:52.738Z,101394.33
2019-02-24T03:53:21.223Z,101396.30
2019-02-24T03:55:49.625Z,101397.17
2019-02-24T03:58:18.029Z,101393.55
2019-02-24T04:00:46.512Z,101394.95
2019-02-24T04:03:14.899Z,101399.69
2019-02-24T04:05:43.328Z,101398.18
2019-02-24T04:08:11.737Z,101398.84
2019-02-24T04:10:40.141Z,101398.23
2019-02-24T04:13:08.543Z,101402.30
2019-02-24T04:15:37.015Z,101403.66
2019-02-24T04:18:05.430Z,101409.64
2019-02-24T04:20:33.831Z,101412.38
2019-02-24T04:23:02.249Z,101409.92
2019-02-24T04:25:30.658Z,101413.73
2019-02-24T04:27:59.067Z,101411.05
2019-02-24T04:30:27.493Z,101416.98
2019-02-24T04:32:55.904Z,101409.05
2019-02-24T04:35:24.305Z,101413.06
2019-02-24T04:37:52.714Z,101419.32
2019-02-24T04:40:21.111Z,101415.42
2019-02-24T04:42:49.570Z,101415.68
2019-02-24T04:45:17.981Z,101419.11
2019-02-24T04:47:46.382Z,101413.44
2019-02-24T04:50:15.060Z,101414.77
2019-02-24T04:52:43.484Z,101414.27
2019-02-24T04:55:12.224Z,101413.15
2019-02-24T04:57:40.637Z,101419.03
2019-02-24T05:00:10.194Z,101414.64
2019-02-24T05:02:38.663Z,101414.39
2019-02-24T05:05:07.130Z,101419.86
2019-02-24T05:07:36.106Z,101415.72
2019-02-24T05:10:06.394Z,101414.05
2019-02-24T05:12:34.805Z,101415.75
2019-02-24T05:15:03.765Z,101420.70
2019-02-24T05:17:32.168Z,101416.75
2019-02-24T05:20:00.943Z,101416.75
2019-02-24T05:22:29.358Z,101419.75
2019-02-24T05:24:57.772Z,101417.41
2019-02-24T05:27:26.182Z,101414.81
2019-02-24T05:29:54.596Z,101413.27
2019-02-24T05:32:22.996Z,101414.95
2019-02-24T05:34:51.398Z,101413.37
2019-02-24T05:37:19.839Z,101406.22
2019-02-24T05:39:48.238Z,101405.94
2019-02-24T05:42:16.642Z,101406.70
2019-02-24T05:44:45.060Z,101404.39
2019-02-24T05:47:13.475Z,101406.22
2019-02-24T05:49:41.877Z,101418.43
2019-02-24T05:52:10.292Z,101412.48
2019-02-24T05:54:38.694Z,101413.55
2019-02-24T05:57:10.221Z,101417.44
2019-02-24T05:59:38.627Z,101420.30
2019-02-24T06:02:07.048Z,101413.34
2019-02-24T06:04:35.465Z,101412.95
2019-02-24T06:07:03.874Z,101410.98
2019-02-24T06:09:32.279Z,101416.88
2019-02-24T06:12:00.702Z,101411.14
2019-02-24T06:14:29.106Z,101409.56
2019-02-24T06:16:57.518Z,101405.94
2019-02-24T06:19:25.972Z,101408.94
2019-02-24T06:21:54.363Z,101408.08
2019-02-24T06:24:22.772Z,101418.94
2019-02-24T06:26:51.188Z,101410.64
2019-02-24T06:29:19.582Z,101413.86
2019-02-24T06:31:48.038Z,101404.14
2019-02-24T06:34:16.495Z,101399.30
2019-02-24T06:36:44.915Z,101402.11
2019-02-24T06:39:13.337Z,101405.23
2019-02-24T06:41:41.746Z,101405.99
2019-02-24T06:44:10.160Z,101411.55
2019-02-24T06:46:38.875Z,101414.80
2019-02-24T06:49:07.274Z,101417.93
2019-02-24T06:51:36.243Z,101425.34
2019-02-24T06:54:04.649Z,101432.36
2019-02-24T06:56:33.041Z,101432.00
2019-02-24T06:59:02.010Z,101436.77
2019-02-24T07:01:30.406Z,101429.26
2019-02-24T07:03:58.811Z,101425.32
2019-02-24T07:06:27.535Z,101425.75
2019-02-24T07:08:55.945Z,101419.87
2019-02-24T07:11:24.350Z,101424.46
2019-02-24T07:13:52.783Z,101423.03
2019-02-24T07:16:21.186Z,101433.86
2019-02-24T07:18:49.590Z,101430.36
2019-02-24T07:21:18.864Z,101433.05
2019-02-24T07:23:49.932Z,101435.73
2019-02-24T07:26:18.328Z,101432.42
2019-02-24T07:28:46.804Z,101430.51
2019-02-24T07:31:15.203Z,101434.05
2019-02-24T07:33:43.616Z,101440.18
2019-02-24T07:36:12.037Z,101448.83
2019-02-24T07:38:40.443Z,101443.44
2019-02-24T07:41:08.845Z,101451.23
2019-02-24T07:43:37.285Z,101449.94
2019-02-24T07:46:05.683Z,101449.95
2019-02-24T07:48:34.078Z,101453.11
2019-02-24T07:51:02.511Z,101457.09
2019-02-24T07:53:31.221Z,101463.75
2019-02-24T07:55:59.620Z,101463.31
2019-02-24T07:58:28.391Z,101467.62
2019-02-24T08:00:56.806Z,101469.16
2019-02-24T08:03:25.200Z,101469.16
2019-02-24T08:05:53.638Z,101459.91
2019-02-24T08:08:22.032Z,101465.81
2019-02-24T08:10:50.438Z,101469.03
2019-02-24T08:13:18.857Z,101462.75
2019-02-24T08:15:47.257Z,101469.05
2019-02-24T08:18:16.574Z,101470.97
2019-02-24T08:20:44.977Z,101474.27
2019-02-24T08:23:13.387Z,101473.36
2019-02-24T08:25:42.324Z,101467.89
2019-02-24T08:28:10.740Z,101463.80
2019-02-24T08:30:41.892Z,101463.48
2019-02-24T08:33:09.411Z,101463.88
2019-02-24T08:35:37.820Z,101458.77
2019-02-24T08:38:06.209Z,101458.80
2019-02-24T08:40:34.916Z,101464.67
2019-02-24T08:43:03.321Z,101462.32
2019-02-24T08:45:32.327Z,101467.23
2019-02-24T08:48:00.737Z,101466.05
2019-02-24T08:50:29.134Z,101464.41
2019-02-24T08:52:57.607Z,101469.73
2019-02-24T08:55:26.010Z,101465.77
2019-02-24T08:57:54.420Z,101468.88
2019-02-24T09:00:22.824Z,101474.39
2019-02-24T09:02:52.622Z,101470.05
2019-02-24T09:05:21.204Z,101475.08
2019-02-24T09:07:49.615Z,101474.48
2019-02-24T09:10:18.022Z,101477.89
2019-02-24T09:12:46.455Z,101482.23
2019-02-24T09:15:15.437Z,101485.58
2019-02-24T09:17:43.837Z,101488.52
2019-02-24T09:20:12.994Z,101485.51
2019-02-24T09:22:41.414Z,101483.80
2019-02-24T09:25:10.567Z,101490.73
2019-02-24T09:27:38.980Z,101478.77
2019-02-24T09:30:12.953Z,101477.45
2019-02-24T09:32:41.441Z,101481.78
2019-02-24T09:35:11.290Z,101483.55
2019-02-24T09:37:39.731Z,101483.82
2019-02-24T09:40:13.345Z,101480.47
2019-02-24T09:42:41.756Z,101484.67
2019-02-24T09:45:12.090Z,101495.40
2019-02-24T09:47:46.680Z,101501.62
2019-02-24T09:50:11.182Z,101498.86
2019-02-24T09:52:39.583Z,101490.08
2019-02-24T09:55:10.075Z,101490.08
2019-02-24T09:57:38.476Z,101497.44
2019-02-24T10:00:14.878Z,101498.11
2019-02-24T10:02:43.285Z,101489.09
2019-02-24T10:05:11.692Z,101487.05
2019-02-24T10:07:40.124Z,101491.06
2019-02-24T10:10:11.045Z,101482.11
2019-02-24T10:12:39.442Z,101495.45
2019-02-24T10:15:13.002Z,101488.44
2019-02-24T10:17:41.399Z,101482.33
2019-02-24T10:20:11.233Z,101491.61
2019-02-24T10:22:39.640Z,101490.44
2019-02-24T10:25:09.187Z,101492.93
2019-02-24T10:27:37.716Z,101493.98
2019-02-24T10:30:11.362Z,101492.88
2019-02-24T10:32:39.774Z,101485.70
2019-02-24T10:35:08.433Z,101491.73
2019-02-24T10:37:36.831Z,101483.27
2019-02-24T10:40:12.529Z,101495.36
2019-02-24T10:42:41.051Z,101491.92
2019-02-24T10:45:12.539Z,101485.22
2019-02-24T10:47:41.727Z,101491.89
2019-02-24T10:50:15.315Z,101493.42
2019-02-24T10:52:43.723Z,101494.77
2019-02-24T10:55:12.463Z,101500.48
2019-02-24T10:57:40.863Z,101497.44
2019-02-24T11:00:17.522Z,101502.06
2019-02-24T11:02:46.638Z,101496.83
2019-02-24T11:05:16.286Z,101502.11
2019-02-24T11:07:44.822Z,101493.93
2019-02-24T11:10:13.410Z,101499.08
2019-02-24T11:12:41.885Z,101493.38
2019-02-24T11:15:11.830Z,101501.66
2019-02-24T11:17:40.457Z,101500.99
2019-02-24T11:20:17.263Z,101486.26
2019-02-24T11:22:45.773Z,101488.39
2019-02-24T11:25:14.607Z,101487.63
2019-02-24T11:27:44.483Z,101486.99
2019-02-24T11:30:14.735Z,101475.78
2019-02-24T11:32:43.141Z,101474.33
2019-02-24T11:35:12.717Z,101476.84
2019-02-24T11:37:41.135Z,101475.56
2019-02-24T11:40:11.668Z,101468.59
2019-02-24T11:42:40.870Z,101467.52
2019-02-24T11:45:09.918Z,101464.81
2019-02-24T11:47:38.322Z,101464.98
2019-02-24T11:50:09.381Z,101459.19
2019-02-24T11:52:37.797Z,101455.91
2019-02-24T11:55:08.037Z,101449.30
2019-02-24T11:57:36.613Z,101443.48
2019-02-24T12:00:13.240Z,101442.44
2019-02-24T12:02:42.016Z,101439.64
2019-02-24T12:05:10.713Z,101447.42
2019-02-24T12:07:39.111Z,101446.55
2019-02-24T12:10:10.053Z,101443.93
2019-02-24T12:12:38.504Z,101436.47
2019-02-24T12:15:15.009Z,101436.83
2019-02-24T12:17:43.410Z,101435.38
2019-02-24T12:20:13.273Z,101429.20
2019-02-24T12:22:41.686Z,101426.86
2019-02-24T12:25:11.041Z,101428.30
2019-02-24T12:27:39.585Z,101423.64
2019-02-24T12:30:13.716Z,101425.22
2019-02-24T12:32:42.118Z,101428.50
2019-02-24T12:35:11.413Z,101425.34
2019-02-24T12:37:39.818Z,101425.12
2019-02-24T12:40:09.868Z,101418.22
2019-02-24T12:42:38.353Z,101413.42
2019-02-24T12:45:10.706Z,101414.83
2019-02-24T12:47:39.145Z,101404.23
2019-02-24T12:50:12.070Z,101408.48
2019-02-24T12:52:40.476Z,101402.42
2019-02-24T12:55:11.295Z,101396.79
2019-02-24T12:57:40.442Z,101398.83
2019-02-24T13:00:13.807Z,101394.59
2019-02-24T13:02:42.294Z,101391.45
2019-02-24T13:05:10.697Z,101387.06
2019-02-24T13:07:39.105Z,101389.65
2019-02-24T13:10:16.372Z,101391.43
2019-02-24T13:12:44.767Z,101384.46
2019-02-24T13:15:13.406Z,101387.55
2019-02-24T13:17:42.209Z,101379.59
2019-02-24T13:20:11.449Z,101384.10
2019-02-24T13:22:40.102Z,101389.97
2019-02-24T13:25:14.108Z,101393.88
2019-02-24T13:27:42.577Z,101392.92
2019-02-24T13:30:16.330Z,101387.61
2019-02-24T13:32:45.071Z,101391.24
2019-02-24T13:35:13.542Z,101393.47
2019-02-24T13:37:42.309Z,101393.47
2019-02-24T13:40:15.156Z,101397.94
2019-02-24T13:42:43.557Z,101399.63
2019-02-24T13:45:19.321Z,101388.95
2019-02-24T13:47:47.761Z,101385.44
2019-02-24T13:50:16.397Z,101387.23
2019-02-24T13:52:44.798Z,101387.41
2019-02-24T13:55:14.821Z,101382.60
2019-02-24T13:57:43.227Z,101380.38
2019-02-24T14:00:17.316Z,101375.86
2019-02-24T14:02:45.758Z,101376.23
2019-02-24T14:05:14.235Z,101373.14
2019-02-24T14:07:42.641Z,101369.55
2019-02-24T14:10:14.676Z,101372.63
2019-02-24T14:12:43.149Z,101374.41
2019-02-24T14:15:13.706Z,101369.10
2019-02-24T14:17:42.491Z,101377.06
2019-02-24T14:20:12.739Z,101370.86
2019-02-24T14:22:41.228Z,101380.62
2019-02-24T14:25:11.630Z,101379.75
2019-02-24T14:27:40.379Z,101375.29
2019-02-24T14:30:13.984Z,101373.97
2019-02-24T14:32:44.003Z,101365.55
2019-02-24T14:35:15.334Z,101368.66
2019-02-24T14:37:43.762Z,101369.02
2019-02-24T14:40:12.230Z,101366.83
2019-02-24T14:42:40.638Z,101361.94
2019-02-24T14:45:14.638Z,101359.74
2019-02-24T14:47:43.048Z,101361.91
2019-02-24T14:50:11.991Z,101359.31
2019-02-24T14:52:40.799Z,101356.71
2019-02-24T14:55:13.445Z,101359.36
2019-02-24T14:57:41.846Z,101356.28
2019-02-24T15:00:20.990Z,101354.11
2019-02-24T15:02:49.872Z,101347.92
2019-02-24T15:05:18.274Z,101358.56
2019-02-24T15:07:47.030Z,101347.02
2019-02-24T15:10:20.529Z,101346.17
2019-02-24T15:12:48.927Z,101345.31
2019-02-24T15:15:26.413Z,101353.28
2019-02-24T15:17:53.355Z,101344.38
2019-02-24T15:20:22.338Z,101341.67
2019-02-24T15:22:51.284Z,101334.14
2019-02-24T15:25:19.688Z,101340.34
2019-02-24T15:27:48.094Z,101338.13
2019-02-24T15:30:28.578Z,101339.85
2019-02-24T15:32:56.999Z,101340.73
2019-02-24T15:35:25.406Z,101334.54
2019-02-24T15:37:53.896Z,101338.16
2019-02-24T15:40:22.299Z,101329.34
2019-02-24T15:42:51.059Z,101331.09
2019-02-24T15:45:19.664Z,101334.62
2019-02-24T15:47:48.070Z,101338.60
2019-02-24T15:50:16.702Z,101331.05
2019-02-24T15:52:45.100Z,101326.58
2019-02-24T15:55:14.943Z,101323.08
2019-02-24T15:57:44.095Z,101320.82
2019-02-24T16:00:18.375Z,101327.44
2019-02-24T16:02:46.788Z,101320.32
2019-02-24T16:05:15.193Z,101318.55
2019-02-24T16:07:43.592Z,101324.30
2019-02-24T16:10:18.017Z,101316.73
2019-02-24T16:12:46.433Z,101320.22
2019-02-24T16:15:17.039Z,101309.53
2019-02-24T16:17:45.473Z,101309.94
2019-02-24T16:20:16.517Z,101314.80
2019-02-24T16:22:45.264Z,101306.80
2019-02-24T16:25:14.502Z,101315.70
2019-02-24T16:27:42.957Z,101319.27
2019-02-24T16:30:13.661Z,101323.33
2019-02-24T16:32:42.180Z,101313.57
2019-02-24T16:35:13.629Z,101314.39
2019-02-24T16:37:42.112Z,101317.39
2019-02-24T16:40:19.252Z,101320.81
2019-02-24T16:42:47.654Z,101325.14
2019-02-24T16:45:16.708Z,101323.28
2019-02-24T16:47:45.177Z,101327.57
2019-02-24T16:50:21.648Z,101325.53
2019-02-24T16:52:50.499Z,101326.50
2019-02-24T16:55:19.087Z,101333.71
2019-02-24T16:57:47.503Z,101338.65
2019-02-24T17:00:21.659Z,101338.87
2019-02-24T17:02:50.075Z,101340.92
2019-02-24T17:05:18.560Z,101342.94
2019-02-24T17:07:49.119Z,101343.38
2019-02-24T17:10:25.364Z,101347.42
2019-02-24T17:12:54.115Z,101344.88
2019-02-24T17:15:22.513Z,101345.39
2019-02-24T17:17:50.917Z,101354.65
2019-02-24T17:20:27.772Z,101353.85
2019-02-24T17:22:56.170Z,101352.55
2019-02-24T17:25:24.579Z,101357.80
2019-02-24T17:27:53.075Z,101361.48
2019-02-24T17:30:23.593Z,101366.98
2019-02-24T17:32:51.663Z,101370.39
2019-02-24T17:35:20.539Z,101373.66
2019-02-24T17:37:48.950Z,101384.55
2019-02-24T17:40:23.767Z,101390.02
2019-02-24T17:42:52.222Z,101390.06
2019-02-24T17:45:20.634Z,101398.99
2019-02-24T17:47:49.094Z,101402.83
2019-02-24T17:50:18.520Z,101404.09
2019-02-24T17:52:46.927Z,101411.36
2019-02-24T17:55:19.333Z,101404.56
2019-02-24T17:57:47.787Z,101403.04
2019-02-24T18:00:43.048Z,101415.38
2019-02-24T18:03:11.526Z,101418.02
2019-02-24T18:05:39.926Z,101416.98
2019-02-24T18:08:08.324Z,101413.23
2019-02-24T18:10:37.185Z,101410.72
2019-02-24T18:13:05.581Z,101413.66
2019-02-24T18:15:33.985Z,101413.73
2019-02-24T18:18:02.420Z,101409.45
2019-02-24T18:20:30.889Z,101414.14
2019-02-24T18:22:59.282Z,101417.78
2019-02-24T18:25:27.713Z,101423.09
2019-02-24T18:27:56.128Z,101421.48
2019-02-24T18:30:31.069Z,101421.70
2019-02-24T18:32:59.483Z,101424.42
2019-02-24T18:35:28.010Z,101433.43
2019-02-24T18:37:56.475Z,101435.09
2019-02-24T18:40:24.907Z,101439.09
2019-02-24T18:42:59.829Z,101440.87
2019-02-24T18:45:23.444Z,101442.27
2019-02-24T18:47:52.845Z,101433.69
2019-02-24T18:50:21.255Z,101430.98
2019-02-24T18:52:49.653Z,101433.69
2019-02-24T18:55:18.103Z,101435.55
2019-02-24T18:57:46.587Z,101431.84
2019-02-24T19:00:24.791Z,101437.16
2019-02-24T19:02:54.963Z,101436.30
2019-02-24T19:05:23.315Z,101440.63
2019-02-24T19:07:51.742Z,101438.08
2019-02-24T19:10:21.885Z,101448.36
2019-02-24T19:12:50.361Z,101450.84
2019-02-24T19:15:20.122Z,101445.62
2019-02-24T19:17:48.604Z,101450.21
2019-02-24T19:20:19.212Z,101453.64
2019-02-24T19:22:48.106Z,101460.17
2019-02-24T19:25:16.749Z,101456.72
2019-02-24T19:27:45.141Z,101462.58
2019-02-24T19:30:21.442Z,101458.17
2019-02-24T19:32:49.848Z,101465.39
2019-02-24T19:35:19.179Z,101468.86
2019-02-24T19:37:47.646Z,101474.07
2019-02-24T19:40:20.211Z,101481.20
2019-02-24T19:42:48.608Z,101484.06
2019-02-24T19:45:26.330Z,101477.31
2019-02-24T19:47:54.724Z,101481.73
2019-02-24T19:50:23.140Z,101485.37
2019-02-24T19:52:51.677Z,101492.91
2019-02-24T19:55:20.148Z,101505.37
2019-02-24T19:57:48.625Z,101499.48
2019-02-24T20:00:20.607Z,101497.98
2019-02-24T20:02:49.009Z,101507.78
2019-02-24T20:05:17.747Z,101512.17
2019-02-24T20:07:46.971Z,101513.78
2019-02-24T20:10:18.385Z,101510.03
2019-02-24T20:12:46.823Z,101509.73
2019-02-24T20:15:16.179Z,101511.86
2019-02-24T20:17:44.652Z,101505.25
2019-02-24T20:20:15.229Z,101506.31
2019-02-24T20:22:43.630Z,101503.42
2019-02-24T20:25:16.462Z,101504.63
2019-02-24T20:27:44.946Z,101502.24
2019-02-24T20:30:19.088Z,101504.56
2019-02-24T20:32:47.486Z,101504.99
2019-02-24T20:35:16.026Z,101512.13
2019-02-24T20:37:44.421Z,101510.20
2019-02-24T20:40:12.883Z,101513.66
2019-02-24T20:42:41.310Z,101510.22
2019-02-24T20:45:12.451Z,101510.86
2019-02-24T20:47:40.857Z,101517.72
2019-02-24T20:50:15.255Z,101518.55
2019-02-24T20:52:43.653Z,101516.03
2019-02-24T20:55:12.133Z,101520.38
2019-02-24T20:57:40.558Z,101513.42
2019-02-24T21:00:26.735Z,101516.17
2019-02-24T21:02:55.152Z,101519.34
2019-02-24T21:05:23.557Z,101515.15
2019-02-24T21:07:51.964Z,101514.63
2019-02-24T21:10:20.478Z,101512.55
2019-02-24T21:12:48.892Z,101513.95
2019-02-24T21:15:18.435Z,101514.81
2019-02-24T21:17:46.891Z,101509.05
2019-02-24T21:20:20.856Z,101516.48
2019-02-24T21:22:50.592Z,101507.64
2019-02-24T21:25:19.235Z,101507.03
2019-02-24T21:27:47.695Z,101509.41
2019-02-24T21:30:19.947Z,101513.19
2019-02-24T21:32:48.871Z,101518.41
2019-02-24T21:35:17.582Z,101522.89
2019-02-24T21:37:46.163Z,101522.97
2019-02-24T21:40:19.412Z,101519.03
2019-02-24T21:42:47.892Z,101520.85
2019-02-24T21:45:23.743Z,101515.27
2019-02-24T21:47:52.657Z,101516.28
2019-02-24T21:50:21.125Z,101522.16
2019-02-24T21:52:49.601Z,101522.62
2019-02-24T21:55:18.247Z,101521.70
2019-02-24T21:57:46.651Z,101509.92
2019-02-24T22:00:25.835Z,101504.41
2019-02-24T22:02:54.236Z,101513.67
2019-02-24T22:05:22.649Z,101517.08
2019-02-24T22:07:51.047Z,101518.53
2019-02-24T22:10:19.450Z,101520.54
2019-02-24T22:12:47.889Z,101525.29
2019-02-24T22:15:23.919Z,101522.30
2019-02-24T22:17:52.316Z,101521.17
2019-02-24T22:20:20.908Z,101519.08
2019-02-24T22:22:49.305Z,101517.96
2019-02-24T22:25:18.051Z,101518.95
2019-02-24T22:27:46.448Z,101514.36
2019-02-24T22:30:17.439Z,101523.99
2019-02-24T22:32:45.971Z,101525.20
2019-02-24T22:35:14.496Z,101519.36
2019-02-24T22:37:42.906Z,101520.59
2019-02-24T22:40:16.822Z,101517.87
2019-02-24T22:42:46.239Z,101524.18
2019-02-24T22:45:17.362Z,101517.47
2019-02-24T22:47:46.448Z,101521.46
2019-02-24T22:50:15.592Z,101518.57
2019-02-24T22:52:44.458Z,101517.46
2019-02-24T22:55:17.697Z,101525.30
2019-02-24T22:57:46.459Z,101522.39
2019-02-24T23:00:52.533Z,101522.88
2019-02-24T23:03:22.773Z,101535.62
2019-02-24T23:05:51.560Z,101529.30
2019-02-24T23:08:19.991Z,101526.97
2019-02-24T23:10:48.693Z,101534.39
2019-02-24T23:13:17.596Z,101537.02
2019-02-24T23:15:45.995Z,101544.73
2019-02-24T23:18:14.396Z,101543.51
2019-02-24T23:20:42.811Z,101543.02
2019-02-24T23:23:11.208Z,101539.31
2019-02-24T23:25:39.615Z,101544.84
2019-02-24T23:28:08.042Z,101542.72
2019-02-24T23:30:36.666Z,101539.83
2019-02-24T23:33:05.245Z,101539.33
2019-02-24T23:35:34.013Z,101539.73
2019-02-24T23:38:02.420Z,101541.04
2019-02-24T23:40:30.866Z,101538.51
2019-02-24T23:42:59.333Z,101538.61
2019-02-24T23:45:27.743Z,101542.20
2019-02-24T23:47:56.159Z,101540.58
2019-02-24T23:50:24.556Z,101538.19
2019-02-24T23:52:52.960Z,101534.28
2019-02-24T23:55:21.378Z,101538.19
2019-02-24T23:57:49.767Z,101536.89
